Aviation Digital Data Service (ADDS)

Output produced by METARs form (1540 UTC 25 September 2016)
found at http://www.aviationweather.gov/adds/metars/
 
KJFK 251442Z 2515/2618 01010KT P6SM SKC 
     FM251800 33010KT P6SM SKC 
     FM260000 02006KT P6SM SKC 
     FM261100 07006KT P6SM FEW250 
     FM261700 15009G15KT P6SM FEW250